Time;durP1;ratioP1;P1;durP2;ratioP2;P2;SDS_P1;SDS_P2;PMS_P1;PMS_P2;Temp;Humidity;BMP_temperature;BMP_pressure;BME280_temperature;BME280_humidity;BME280_pressure;Samples;Min_cycle;Max_cycle;Signal;HPM_P1;HPM_P2
2023/05/28 00:01:32;;;;;;;6.38;3.30;;;;;;;15.63;38.16;100803.31;4939348;28;101410;-88
2023/05/28 00:03:58;;;;;;;9.68;3.47;;;;;;;15.57;38.24;100782.44;4940483;28;100391;-87
2023/05/28 00:06:23;;;;;;;6.55;3.85;;;;;;;15.47;38.31;100789.06;4956024;28;96902;-86
2023/05/28 00:08:49;;;;;;;7.20;4.18;;;;;;;15.65;38.27;100803.25;4953207;28;97135;-87
2023/05/28 00:11:14;;;;;;;11.73;4.00;;;;;;;15.57;38.00;100787.72;4969306;28;101652;-88
2023/05/28 00:13:40;;;;;;;11.82;3.95;;;;;;;15.63;38.09;100802.44;4955741;28;101957;-87
2023/05/28 00:16:05;;;;;;;10.18;3.88;;;;;;;15.44;38.28;100802.44;4960369;28;96830;-87
2023/05/28 00:18:31;;;;;;;7.60;3.58;;;;;;;15.35;38.54;100803.72;4958533;28;97114;-87
2023/05/28 00:20:56;;;;;;;9.60;3.83;;;;;;;15.48;38.62;100798.75;4959310;28;101740;-88
2023/05/28 00:23:22;;;;;;;7.28;3.58;;;;;;;15.27;38.75;100795.31;4964714;28;101416;-87
2023/05/28 00:25:48;;;;;;;7.00;3.78;;;;;;;15.42;38.66;100792.84;4970124;28;98077;-87
2023/05/28 00:28:13;;;;;;;9.80;3.53;;;;;;;15.34;38.76;100802.03;4963089;28;97247;-88
2023/05/28 00:30:39;;;;;;;8.10;3.80;;;;;;;15.38;38.33;100787.72;4950317;28;101231;-88
2023/05/28 00:33:04;;;;;;;8.98;3.58;;;;;;;15.29;38.33;100792.59;4962848;28;101250;-87
2023/05/28 00:35:30;;;;;;;7.05;3.70;;;;;;;15.28;38.59;100796.16;4961934;28;97378;-88
2023/05/28 00:37:57;;;;;;;7.70;4.20;;;;;;;15.23;38.78;100799.00;4956158;28;96993;-88
2023/05/28 00:40:22;;;;;;;7.32;3.72;;;;;;;15.21;38.72;100787.63;4957881;28;101465;-86
2023/05/28 00:42:48;;;;;;;9.20;4.38;;;;;;;15.22;38.91;100784.09;4956741;28;100692;-88
2023/05/28 00:45:14;;;;;;;5.90;3.40;;;;;;;15.31;38.76;100793.38;4960213;28;96798;-88
2023/05/28 00:47:41;;;;;;;7.00;3.38;;;;;;;15.21;38.99;100774.41;4939003;28;97483;-88
2023/05/28 00:50:07;;;;;;;7.72;3.30;;;;;;;15.08;39.13;100775.91;4942762;28;101294;-88
2023/05/28 00:52:35;;;;;;;9.65;3.80;;;;;;;15.04;39.22;100791.06;4948437;28;98336;-88
2023/05/28 00:55:01;;;;;;;9.10;4.13;;;;;;;15.16;39.36;100776.44;4957918;28;97785;-88
2023/05/28 00:57:26;;;;;;;10.38;4.78;;;;;;;15.03;39.36;100752.31;4976666;28;97208;-89
2023/05/28 00:59:52;;;;;;;6.25;3.88;;;;;;;15.00;39.26;100773.63;4986950;28;97679;-89
2023/05/28 01:02:18;;;;;;;9.13;3.95;;;;;;;15.10;39.39;100784.66;4954630;28;100087;-87
2023/05/28 01:04:44;;;;;;;6.30;3.50;;;;;;;15.09;39.76;100772.34;4982880;28;96697;-88
2023/05/28 01:07:10;;;;;;;8.88;3.97;;;;;;;14.99;39.43;100763.97;4965309;28;96767;-88
2023/05/28 01:09:36;;;;;;;12.05;3.78;;;;;;;15.08;39.93;100768.00;4963526;28;101125;-87
2023/05/28 01:12:03;;;;;;;10.80;3.92;;;;;;;14.99;39.66;100748.13;4962355;28;100177;-88
2023/05/28 01:14:30;;;;;;;6.68;3.55;;;;;;;15.10;39.42;100768.78;4955992;28;97981;-87
2023/05/28 01:16:58;;;;;;;7.95;4.13;;;;;;;15.00;39.35;100755.09;4947565;28;96896;-88
2023/05/28 01:19:27;;;;;;;9.70;3.70;;;;;;;14.91;39.01;100768.75;4971739;28;100241;-85
2023/05/28 01:22:03;;;;;;;7.30;3.88;;;;;;;14.84;39.27;100767.31;4935692;28;101514;-87
2023/05/28 01:24:31;;;;;;;7.00;3.58;;;;;;;14.58;39.66;100728.84;4955554;28;97422;-88
2023/05/28 01:26:57;;;;;;;8.52;4.30;;;;;;;14.79;39.78;100767.50;4942095;28;97075;-88
2023/05/28 01:29:23;;;;;;;13.32;4.03;;;;;;;14.79;39.74;100745.50;4958188;28;101263;-86
2023/05/28 01:31:48;;;;;;;7.95;3.85;;;;;;;14.83;39.79;100758.50;4941749;28;100828;-87
2023/05/28 01:34:14;;;;;;;10.35;3.90;;;;;;;14.81;39.30;100764.81;4967229;28;96839;-87
2023/05/28 01:36:56;;;;;;;5.60;3.55;;;;;;;14.81;39.65;100767.47;4957737;28;97452;-89
2023/05/28 01:39:21;;;;;;;;;;;;;;;14.75;39.63;100759.78;4947870;28;101421;-86
2023/05/28 01:41:47;;;;;;;9.50;4.25;;;;;;;14.61;39.32;100732.19;4982429;28;97742;-88
2023/05/28 01:44:14;;;;;;;6.35;3.70;;;;;;;14.80;39.79;100760.44;4949498;28;97387;-88
2023/05/28 01:46:41;;;;;;;8.70;3.65;;;;;;;14.72;40.29;100760.78;4945300;28;97425;-88
2023/05/28 01:49:08;;;;;;;9.65;4.32;;;;;;;14.57;40.19;100756.16;4939111;28;98892;-87
2023/05/28 01:51:35;;;;;;;9.60;3.55;;;;;;;14.62;40.21;100756.81;4935633;28;101546;-86
2023/05/28 01:54:01;;;;;;;6.10;3.92;;;;;;;14.64;39.84;100762.91;4927954;28;96791;-87
2023/05/28 01:56:26;;;;;;;6.35;4.20;;;;;;;14.56;39.86;100747.38;4971400;28;97529;-86
2023/05/28 01:58:52;;;;;;;7.80;4.15;;;;;;;14.69;40.45;100761.78;4939458;28;98545;-88
2023/05/28 02:01:27;;;;;;;7.43;4.07;;;;;;;14.66;40.02;100759.28;4952738;28;98364;-88
2023/05/28 02:03:54;;;;;;;8.65;3.97;;;;;;;14.64;40.47;100760.25;4971894;28;97459;-88
2023/05/28 02:06:21;;;;;;;7.72;3.42;;;;;;;14.58;40.39;100752.63;4955617;28;97075;-88
2023/05/28 02:08:46;;;;;;;6.90;4.10;;;;;;;14.56;40.49;100751.81;4961586;28;100406;-88
2023/05/28 02:11:12;;;;;;;8.02;4.18;;;;;;;14.57;40.65;100756.16;4982823;28;97878;-88
2023/05/28 02:13:39;;;;;;;5.50;3.53;;;;;;;14.22;40.86;100690.72;4962419;28;97540;-89
2023/05/28 02:16:06;;;;;;;11.15;3.83;;;;;;;14.35;41.43;100724.53;4968275;28;97077;-88
2023/05/28 02:18:32;;;;;;;8.98;4.07;;;;;;;14.40;41.38;100736.59;4947028;28;100890;-88
2023/05/28 02:20:58;;;;;;;8.48;3.95;;;;;;;14.40;41.37;100744.53;4947489;28;100325;-89
2023/05/28 02:23:24;;;;;;;11.45;4.15;;;;;;;14.26;41.68;100729.28;4946101;28;97919;-87
2023/05/28 02:25:49;;;;;;;10.05;4.40;;;;;;;14.22;41.90;100737.38;4947243;28;97058;-88
2023/05/28 02:28:15;;;;;;;9.00;4.32;;;;;;;14.30;42.21;100753.75;4925589;28;101334;-89
2023/05/28 02:30:40;;;;;;;11.07;3.83;;;;;;;14.10;41.97;100725.56;4952307;28;99409;-88
2023/05/28 02:33:07;;;;;;;7.25;3.60;;;;;;;14.21;42.55;100741.81;4954413;28;97656;-88
2023/05/28 02:35:32;;;;;;;7.55;4.22;;;;;;;14.23;42.43;100753.16;4956717;28;96892;-87
2023/05/28 02:37:58;;;;;;;9.48;4.30;;;;;;;14.13;42.75;100741.25;4962680;28;100843;-88
2023/05/28 02:40:23;;;;;;;7.50;3.97;;;;;;;14.18;42.64;100757.78;4949889;28;101582;-87
2023/05/28 02:42:49;;;;;;;6.82;3.50;;;;;;;14.05;42.85;100738.13;4978107;28;96862;-88
2023/05/28 02:45:15;;;;;;;10.23;4.25;;;;;;;14.06;42.96;100736.31;4966247;28;96764;-87
2023/05/28 02:47:41;;;;;;;8.70;3.97;;;;;;;14.12;42.85;100754.53;4956314;28;101475;-88
2023/05/28 02:50:07;;;;;;;7.53;4.53;;;;;;;14.04;42.92;100749.56;4938782;28;99968;-87
2023/05/28 02:53:05;;;;;;;9.32;4.13;;;;;;;14.02;43.19;100757.56;4966419;28;96839;-87
2023/05/28 02:55:31;;;;;;;9.35;4.25;;;;;;;13.96;43.06;100754.31;4932355;28;97018;-88
2023/05/28 02:57:56;;;;;;;6.85;4.03;;;;;;;13.88;43.10;100738.81;4937780;28;101762;-88
2023/05/28 03:00:23;;;;;;;6.60;4.03;;;;;;;13.96;42.95;100752.56;4944064;28;101002;-88
2023/05/28 03:02:49;;;;;;;6.90;4.05;;;;;;;13.95;42.73;100750.81;4968186;28;96844;-87
2023/05/28 03:05:16;;;;;;;8.88;4.00;;;;;;;14.01;43.01;100757.63;4957006;28;96923;-87
2023/05/28 03:07:41;;;;;;;8.43;4.25;;;;;;;14.00;42.93;100758.56;4965264;28;101862;-88
2023/05/28 03:10:08;;;;;;;9.35;4.50;;;;;;;13.85;43.06;100732.81;4961162;28;100112;-86
2023/05/28 03:12:36;;;;;;;9.23;4.38;;;;;;;13.99;43.10;100762.97;4964923;28;96751;-87
2023/05/28 03:15:02;;;;;;;10.23;4.65;;;;;;;14.01;42.91;100762.91;4949483;28;97362;-87
2023/05/28 03:17:27;;;;;;;12.32;3.97;;;;;;;13.97;42.62;100764.81;4954598;28;101594;-86
2023/05/28 03:19:53;;;;;;;11.80;4.32;;;;;;;13.98;42.60;100755.09;4945045;28;101480;-88
2023/05/28 03:22:20;;;;;;;5.95;3.75;;;;;;;14.02;42.44;100762.84;4948799;28;96855;-88
2023/05/28 03:24:46;;;;;;;12.48;4.25;;;;;;;14.07;42.23;100754.72;4968029;28;97232;-87
2023/05/28 03:27:13;;;;;;;10.93;4.22;;;;;;;14.12;42.65;100765.97;4958045;28;101393;-88
2023/05/28 03:29:39;;;;;;;10.65;4.40;;;;;;;14.17;42.69;100761.34;4946257;28;100224;-85
2023/05/28 03:32:12;;;;;;;10.68;4.38;;;;;;;14.14;42.86;100764.13;4949219;28;97305;-88
2023/05/28 03:34:38;;;;;;;8.75;4.53;;;;;;;14.23;43.14;100769.00;4964832;28;96807;-88
2023/05/28 03:37:05;;;;;;;12.32;3.80;;;;;;;14.33;42.83;100760.69;4962607;28;97960;-87
2023/05/28 03:39:31;;;;;;;6.10;4.00;;;;;;;14.40;42.76;100756.88;4939154;28;100499;-88
2023/05/28 03:41:57;;;;;;;11.10;4.38;;;;;;;14.48;42.72;100762.66;4948158;28;96791;-88
2023/05/28 03:44:25;;;;;;;9.40;4.18;;;;;;;14.36;42.62;100744.72;4953846;28;96994;-88
2023/05/28 03:46:52;;;;;;;7.50;4.53;;;;;;;14.54;42.95;100761.59;4954725;28;101492;-88
2023/05/28 03:49:17;;;;;;;8.68;4.32;;;;;;;14.65;42.63;100762.81;4945153;28;101052;-88
2023/05/28 03:51:43;;;;;;;8.93;4.88;;;;;;;14.54;43.29;100748.38;4963279;28;97593;-88
2023/05/28 03:54:09;;;;;;;6.80;3.92;;;;;;;14.78;43.02;100768.44;4961084;28;97203;-88
2023/05/28 03:56:35;;;;;;;7.07;4.15;;;;;;;14.65;43.09;100739.03;4960221;28;100214;-87
2023/05/28 03:59:02;;;;;;;9.50;4.00;;;;;;;14.88;42.91;100764.44;4950404;28;101062;-88
2023/05/28 04:01:28;;;;;;;12.45;4.50;;;;;;;14.68;42.33;100745.97;4955669;28;96832;-87
2023/05/28 04:03:55;;;;;;;8.77;3.95;;;;;;;14.62;41.87;100746.25;4961524;28;96772;-88
2023/05/28 04:06:21;;;;;;;8.27;4.53;;;;;;;14.85;41.87;100769.88;4970098;28;101680;-87
2023/05/28 04:08:47;;;;;;;9.27;4.35;;;;;;;14.90;41.87;100764.41;4980211;28;101355;-88
2023/05/28 04:11:13;;;;;;;6.95;4.22;;;;;;;15.01;42.00;100772.72;4966324;28;97207;-88
2023/05/28 04:13:39;;;;;;;9.05;5.03;;;;;;;14.97;41.79;100742.03;4962784;28;96916;-87
2023/05/28 04:16:06;;;;;;;15.80;4.80;;;;;;;14.92;42.39;100759.88;4968496;28;101433;-88
2023/05/28 04:18:32;;;;;;;7.28;3.70;;;;;;;15.13;41.60;100748.34;4956046;28;101326;-85
2023/05/28 04:20:58;;;;;;;12.57;4.38;;;;;;;15.31;41.63;100764.28;4958878;28;96872;-87
2023/05/28 04:23:24;;;;;;;8.32;4.35;;;;;;;15.32;41.52;100758.06;4949767;28;96780;-88
2023/05/28 04:25:50;;;;;;;9.20;4.55;;;;;;;15.26;41.98;100761.00;4958795;28;97994;-87
2023/05/28 04:28:16;;;;;;;8.45;4.50;;;;;;;15.27;41.46;100760.06;4943169;28;100988;-87
2023/05/28 04:30:41;;;;;;;6.85;4.47;;;;;;;15.49;41.04;100755.47;4962890;28;97257;-88
2023/05/28 04:33:09;;;;;;;11.52;4.82;;;;;;;15.76;40.56;100755.97;4954584;28;97148;-88
2023/05/28 04:35:37;;;;;;;7.68;4.18;;;;;;;15.94;40.11;100748.03;4953658;28;101606;-88
2023/05/28 04:38:02;;;;;;;9.05;4.18;;;;;;;16.14;39.96;100755.00;4970902;28;99746;-87
2023/05/28 04:40:28;;;;;;;8.48;4.00;;;;;;;16.26;39.91;100763.22;4952153;28;96953;-88
2023/05/28 04:42:55;;;;;;;8.82;4.80;;;;;;;16.18;39.14;100730.09;4974203;28;97670;-87
2023/05/28 04:45:22;;;;;;;7.35;4.18;;;;;;;16.48;39.13;100752.34;4949944;28;101466;-88
2023/05/28 04:47:49;;;;;;;9.30;4.28;;;;;;;16.26;39.01;100719.94;4950160;28;101629;-87
2023/05/28 04:50:14;;;;;;;6.75;3.80;;;;;;;16.53;38.77;100739.72;4950332;28;96785;-88
2023/05/28 04:52:40;;;;;;;11.23;4.30;;;;;;;16.75;38.78;100752.72;4942280;28;97084;-87
2023/05/28 04:55:06;;;;;;;8.82;4.47;;;;;;;16.92;38.70;100749.19;4932878;28;101490;-89
2023/05/28 04:57:32;;;;;;;7.03;3.67;;;;;;;17.00;37.64;100753.22;4954762;28;101217;-88
2023/05/28 05:00:00;;;;;;;9.65;4.65;;;;;;;16.97;37.58;100751.59;4955792;28;96819;-89
2023/05/28 05:02:25;;;;;;;8.75;3.97;;;;;;;17.09;38.29;100758.03;4943289;28;96818;-87
2023/05/28 05:04:51;;;;;;;14.98;4.28;;;;;;;16.84;37.72;100747.88;4958728;28;101374;-88
2023/05/28 05:07:20;;;;;;;13.30;4.70;;;;;;;17.08;37.45;100754.53;4944441;28;100740;-87
2023/05/28 05:09:46;;;;;;;6.65;3.85;;;;;;;17.06;37.34;100759.06;4953237;28;97117;-88
2023/05/28 05:12:12;;;;;;;7.80;3.92;;;;;;;17.01;37.63;100739.88;4956454;28;97085;-88
2023/05/28 05:14:38;;;;;;;7.70;4.45;;;;;;;17.19;37.31;100745.97;4949664;28;101981;-88
2023/05/28 05:17:06;;;;;;;7.40;3.95;;;;;;;17.04;37.12;100763.56;4941065;28;99927;-89
2023/05/28 05:19:32;;;;;;;10.18;4.60;;;;;;;17.41;37.01;100759.75;4970832;28;97534;-86
2023/05/28 05:21:57;;;;;;;5.95;3.42;;;;;;;17.61;38.76;100752.50;4954128;28;97932;-91
2023/05/28 05:24:24;;;;;;;9.20;3.50;;;;;;;17.70;38.05;100744.00;4945611;28;100566;-92
2023/05/28 05:26:49;;;;;;;5.97;3.85;;;;;;;18.00;37.73;100748.53;4956686;28;98047;-91
2023/05/28 05:29:16;;;;;;;8.02;4.15;;;;;;;18.28;37.24;100758.41;4970152;28;97121;-91
2023/05/28 05:31:42;;;;;;;12.75;3.95;;;;;;;18.45;36.81;100763.56;4940301;28;97858;-93
2023/05/28 05:34:09;;;;;;;9.20;4.28;;;;;;;18.76;35.71;100738.66;4935381;28;100869;-92
2023/05/28 05:36:40;;;;;;;7.90;4.00;;;;;;;19.41;35.13;100750.56;4953119;28;97441;-87
2023/05/28 05:39:29;;;;;;;8.68;4.15;;;;;;;19.96;33.90;100743.50;4964419;28;97443;-89
2023/05/28 05:42:05;;;;;;;14.43;5.03;;;;;;;20.86;32.70;100732.00;4939862;28;96960;-89
2023/05/28 05:44:37;;;;;;;7.70;4.00;;;;;;;22.23;30.69;100738.91;4940200;28;101997;-84
2023/05/28 05:47:03;;;;;;;8.80;3.80;;;;;;;23.88;29.09;100748.13;4955914;28;101522;-87
2023/05/28 05:49:29;;;;;;;13.35;4.88;;;;;;;25.46;26.56;100729.16;4955547;28;97361;-85
2023/05/28 05:51:55;;;;;;;7.13;4.03;;;;;;;27.63;24.29;100714.88;4955664;28;97393;-88
2023/05/28 05:54:20;;;;;;;6.72;3.78;;;;;;;31.40;20.45;100723.00;4957722;28;101369;-87
2023/05/28 05:56:47;;;;;;;13.75;4.38;;;;;;;34.13;18.81;100714.22;4939775;28;101296;-88
2023/05/28 05:59:12;;;;;;;10.50;4.30;;;;;;;36.53;16.58;100715.13;4956402;28;97313;-88
2023/05/28 06:01:38;;;;;;;5.72;3.70;;;;;;;37.63;15.53;100712.38;4956736;28;97009;-89
2023/05/28 06:04:04;;;;;;;8.35;4.13;;;;;;;39.03;14.61;100712.78;4956001;28;100877;-89
2023/05/28 06:07:06;;;;;;;9.40;4.82;;;;;;;39.94;14.28;100710.03;4886626;28;97401;-89
2023/05/28 06:09:52;;;;;;;8.90;3.92;;;;;;;40.97;13.57;100702.25;4917680;28;97511;-88
2023/05/28 06:12:24;;;;;;;5.57;4.35;;;;;;;42.03;12.79;100680.53;4962448;28;96929;-88
2023/05/28 06:14:50;;;;;;;7.13;4.50;;;;;;;42.44;12.38;100700.47;4949729;28;100463;-84
2023/05/28 06:17:17;;;;;;;6.22;4.22;;;;;;;42.73;12.42;100695.63;4940143;28;101496;-86
2023/05/28 06:19:43;;;;;;;7.07;4.15;;;;;;;43.39;11.97;100703.88;4934936;28;97306;-85
2023/05/28 06:22:10;;;;;;;6.28;4.32;;;;;;;44.11;11.19;100699.84;4956548;28;97064;-87
2023/05/28 06:24:38;;;;;;;7.72;3.92;;;;;;;44.59;11.16;100694.31;4981579;28;97891;-86
2023/05/28 06:27:05;;;;;;;6.72;4.18;;;;;;;45.15;11.13;100687.13;4949016;28;101346;-86
2023/05/28 06:29:30;;;;;;;5.18;3.65;;;;;;;45.44;10.97;100696.84;4945202;28;97280;-85
2023/05/28 06:31:56;;;;;;;8.07;4.50;;;;;;;45.74;10.46;100696.91;4964889;28;97371;-86
2023/05/28 06:34:22;;;;;;;7.72;3.95;;;;;;;46.21;10.07;100698.53;4948378;28;99909;-90
2023/05/28 06:36:48;;;;;;;5.32;3.63;;;;;;;46.73;10.76;100697.31;4982356;28;100278;-88
2023/05/28 06:39:14;;;;;;;10.18;4.50;;;;;;;47.42;9.95;100691.97;4948484;28;97294;-88
2023/05/28 06:41:42;;;;;;;6.73;3.93;;;;;;;48.32;9.75;100690.56;4954211;28;97412;-91
2023/05/28 06:44:17;;;;;;;6.50;3.88;;;;;;;49.09;9.06;100679.31;4949388;28;101435;-90
2023/05/28 06:46:44;;;;;;;5.03;3.80;;;;;;;49.37;9.30;100685.88;4962741;28;100832;-91
2023/05/28 06:49:11;;;;;;;6.35;3.65;;;;;;;49.32;9.24;100674.00;4961692;28;97014;-89
2023/05/28 06:51:37;;;;;;;8.32;4.00;;;;;;;50.32;8.70;100687.59;4950886;28;97609;-85
2023/05/28 06:54:03;;;;;;;6.25;3.97;;;;;;;51.07;8.62;100686.28;4925242;28;101767;-87
2023/05/28 06:56:31;;;;;;;6.10;3.70;;;;;;;51.11;8.46;100690.09;4926898;28;101213;-86
2023/05/28 06:59:15;;;;;;;4.82;3.60;;;;;;;51.51;8.34;100693.06;4957962;28;96947;-88
2023/05/28 07:02:09;;;;;;;5.82;3.60;;;;;;;52.16;7.87;100692.47;4967243;28;96933;-88
2023/05/28 07:04:40;;;;;;;5.72;3.30;;;;;;;52.12;7.70;100693.47;4958816;28;97974;-87
2023/05/28 07:07:11;;;;;;;5.65;3.08;;;;;;;52.92;7.49;100694.19;4968825;28;102291;-86
2023/05/28 07:09:37;;;;;;;7.10;3.70;;;;;;;52.79;7.46;100692.38;4963988;28;96787;-87
2023/05/28 07:12:03;;;;;;;8.20;3.40;;;;;;;52.93;7.28;100684.66;4948009;28;96755;-85
2023/05/28 07:14:31;;;;;;;4.50;3.80;;;;;;;53.60;7.79;100681.34;4953428;28;98505;-86
2023/05/28 07:16:56;;;;;;;5.68;4.57;;;;;;;53.39;7.89;100686.84;4971936;28;97786;-85
2023/05/28 07:19:22;;;;;;;5.50;4.25;;;;;;;53.60;7.45;100688.94;4956714;28;97316;-86
2023/05/28 07:21:48;;;;;;;11.68;3.95;;;;;;;53.72;7.44;100672.25;4950907;28;97100;-85
2023/05/28 07:24:14;;;;;;;6.03;3.95;;;;;;;54.13;7.30;100676.41;4935816;28;101227;-85
2023/05/28 07:26:39;;;;;;;4.30;3.50;;;;;;;54.74;7.11;100666.84;4955083;28;100929;-87
2023/05/28 07:29:05;;;;;;;5.63;3.70;;;;;;;55.24;6.44;100675.19;4936260;28;97315;-89
2023/05/28 07:31:31;;;;;;;5.13;3.33;;;;;;;55.95;6.21;100673.34;4942737;28;97703;-91
2023/05/28 07:33:58;;;;;;;8.73;3.88;;;;;;;55.70;6.22;100670.47;4943282;28;102207;-90
2023/05/28 07:36:28;;;;;;;6.53;3.63;;;;;;;56.24;6.58;100675.13;4958041;28;98286;-88
2023/05/28 07:38:54;;;;;;;7.85;3.60;;;;;;;56.13;6.75;100668.31;4939836;28;97283;-86
2023/05/28 07:41:21;;;;;;;7.35;5.75;;;;;;;56.33;6.33;100669.38;4940009;28;97367;-86
2023/05/28 07:43:58;;;;;;;5.88;3.85;;;;;;;56.67;6.48;100657.59;4970104;28;101390;-85
2023/05/28 07:46:26;;;;;;;6.20;3.80;;;;;;;55.95;6.54;100660.09;4941147;28;100732;-86
2023/05/28 07:49:02;;;;;;;4.35;3.95;;;;;;;57.12;6.45;100633.94;4960498;28;97476;-84
2023/05/28 07:51:32;;;;;;;5.38;3.38;;;;;;;56.66;6.08;100655.94;4945611;28;97389;-86
2023/05/28 07:54:20;;;;;;;5.78;3.60;;;;;;;56.74;5.55;100647.72;4950011;28;100183;-89
2023/05/28 07:56:48;;;;;;;4.13;3.73;;;;;;;55.32;6.34;100648.19;4952342;28;100679;-91
2023/05/28 07:59:22;;;;;;;4.63;3.42;;;;;;;56.00;6.22;100656.19;4937090;28;97115;-89
2023/05/28 08:01:47;;;;;;;5.43;3.30;;;;;;;56.39;5.54;100642.59;4959538;28;97044;-90
2023/05/28 08:04:13;;;;;;;5.15;3.67;;;;;;;57.11;5.88;100640.78;4936540;28;101356;-92
2023/05/28 08:06:39;;;;;;;3.97;3.22;;;;;;;56.93;5.86;100637.44;4956554;28;101182;-89
2023/05/28 08:09:09;;;;;;;4.40;3.28;;;;;;;57.45;5.99;100624.41;4954845;28;97224;-91
2023/05/28 08:11:35;;;;;;;4.38;3.38;;;;;;;57.31;5.60;100643.75;4954464;28;97618;-84
2023/05/28 08:14:01;;;;;;;5.97;3.42;;;;;;;56.53;5.68;100645.06;4961545;28;97996;-86
2023/05/28 08:16:26;;;;;;;3.50;3.20;;;;;;;57.34;5.59;100638.22;4961943;28;98393;-85
2023/05/28 08:19:21;;;;;;;7.80;3.63;;;;;;;55.63;5.95;100632.81;4949250;28;97514;-87
2023/05/28 08:21:50;;;;;;;3.47;3.17;;;;;;;56.46;6.22;100637.19;4935819;28;97894;-87
2023/05/28 08:24:18;;;;;;;5.20;2.88;;;;;;;55.93;5.81;100620.19;4942046;28;101290;-87
2023/05/28 08:26:44;;;;;;;6.95;3.00;;;;;;;53.21;6.26;100625.47;4946090;28;101818;-88
2023/05/28 08:29:10;;;;;;;4.22;2.80;;;;;;;54.10;6.48;100623.75;4940528;28;97641;-88
2023/05/28 08:31:40;;;;;;;2.83;2.63;;;;;;;53.37;6.73;100612.59;4944010;28;97550;-86
2023/05/28 08:34:14;;;;;;;3.70;2.83;;;;;;;50.01;7.58;100616.47;4948540;28;101557;-85
2023/05/28 08:36:42;;;;;;;6.43;2.55;;;;;;;44.06;9.68;100625.97;4956118;28;101673;-87
2023/05/28 08:39:12;;;;;;;3.88;2.00;;;;;;;40.66;11.43;100641.91;4945971;28;97185;-85
2023/05/28 08:41:40;;;;;;;3.30;1.95;;;;;;;38.59;12.60;100651.69;4933477;28;97343;-86
2023/05/28 08:44:06;;;;;;;3.33;1.80;;;;;;;37.68;13.29;100630.41;4938099;28;101889;-88
2023/05/28 08:46:32;;;;;;;2.80;1.48;;;;;;;36.77;13.83;100646.06;4953088;28;100840;-88
2023/05/28 08:49:20;;;;;;;;;;;;;;;35.50;14.17;100644.47;4965278;28;97710;-87
2023/05/28 08:51:49;;;;;;;5.70;1.70;;;;;;;35.05;14.81;100644.97;4932794;28;98462;-85
2023/05/28 08:54:17;;;;;;;2.20;1.75;;;;;;;33.54;15.54;100643.72;4950252;28;99739;-86
2023/05/28 08:56:43;;;;;;;3.17;1.90;;;;;;;31.88;17.26;100644.97;4934935;28;100312;-85
2023/05/28 08:59:10;;;;;;;7.00;2.00;;;;;;;30.94;17.82;100646.13;4944137;28;97275;-84
2023/05/28 09:01:37;;;;;;;3.47;1.80;;;;;;;30.65;18.17;100645.72;4949879;28;97312;-85
2023/05/28 09:04:08;;;;;;;4.53;1.77;;;;;;;30.70;18.35;100619.97;4949287;28;101807;-84
2023/05/28 09:06:40;;;;;;;8.35;2.75;;;;;;;30.65;19.32;100636.75;4934164;28;101781;-84
2023/05/28 09:09:11;;;;;;;4.00;2.25;;;;;;;29.51;19.13;100640.41;4945003;28;97527;-83
2023/05/28 09:11:43;;;;;;;6.05;2.40;;;;;;;29.49;19.64;100642.44;4955280;28;97406;-83
2023/05/28 09:14:13;;;;;;;6.03;1.90;;;;;;;29.53;19.63;100638.41;4950873;28;97832;-83
2023/05/28 09:16:39;;;;;;;;;;;;;;;29.44;20.12;100642.06;4938507;28;101512;-85
2023/05/28 09:19:07;;;;;;;11.50;2.80;;;;;;;29.09;20.04;100631.41;4947685;28;97354;-84
2023/05/28 09:21:33;;;;;;;6.75;3.05;;;;;;;28.88;20.16;100641.75;4937389;28;97406;-87
2023/05/28 09:24:03;;;;;;;7.60;2.13;;;;;;;28.10;21.19;100644.50;4935356;28;101601;-85
2023/05/28 09:26:32;;;;;;;7.35;2.10;;;;;;;28.02;21.00;100639.09;4971506;28;98647;-87
2023/05/28 09:29:12;;;;;;;4.40;2.25;;;;;;;27.64;21.29;100641.09;4944265;28;97508;-86
2023/05/28 09:31:38;;;;;;;9.32;2.58;;;;;;;27.25;20.83;100631.44;4968844;28;97503;-85
2023/05/28 09:34:04;;;;;;;5.72;1.92;;;;;;;27.10;21.39;100636.50;4939121;28;101613;-82
2023/05/28 09:36:30;;;;;;;2.55;1.90;;;;;;;27.22;21.20;100625.53;4941399;28;101043;-84
2023/05/28 09:38:56;;;;;;;5.93;2.08;;;;;;;26.80;22.05;100632.28;4954296;28;97427;-86
2023/05/28 09:41:23;;;;;;;4.55;2.15;;;;;;;26.69;22.28;100643.25;4940863;28;97112;-80
2023/05/28 09:44:04;;;;;;;3.38;2.15;;;;;;;26.35;22.06;100640.22;4953573;28;101528;-92
2023/05/28 09:46:34;;;;;;;6.45;2.08;;;;;;;26.30;21.87;100629.91;4938777;28;101466;-85
2023/05/28 09:49:01;;;;;;;4.60;1.90;;;;;;;26.40;22.63;100627.19;4952508;28;97260;-86
2023/05/28 09:51:31;;;;;;;5.97;2.20;;;;;;;26.09;22.56;100632.81;4967642;28;97266;-86
2023/05/28 09:54:00;;;;;;;3.92;1.77;;;;;;;25.97;22.45;100631.25;4945396;28;100807;-86
2023/05/28 09:56:34;;;;;;;6.57;1.95;;;;;;;25.68;22.33;100631.25;4971965;28;101384;-84
2023/05/28 09:59:02;;;;;;;3.10;1.90;;;;;;;25.82;22.36;100620.09;4947065;28;97244;-84
2023/05/28 10:01:33;;;;;;;3.95;2.05;;;;;;;25.95;22.85;100631.41;4948211;28;97444;-84
2023/05/28 10:04:08;;;;;;;5.90;1.90;;;;;;;25.73;22.69;100627.16;4964007;28;101354;-84
2023/05/28 10:06:36;;;;;;;11.60;2.10;;;;;;;25.86;22.75;100610.78;4956130;28;98069;-84
2023/05/28 10:09:02;;;;;;;4.45;1.95;;;;;;;25.54;22.30;100605.69;4948007;28;97528;-83
2023/05/28 10:11:34;;;;;;;3.22;1.83;;;;;;;25.29;22.95;100629.41;4956192;28;97038;-86
2023/05/28 10:14:00;;;;;;;4.60;2.00;;;;;;;25.18;23.91;100631.38;4956833;28;98087;-83
2023/05/28 10:16:26;;;;;;;6.75;2.28;;;;;;;25.43;23.21;100628.16;4956884;28;101703;-84
2023/05/28 10:18:53;;;;;;;4.85;1.60;;;;;;;25.16;22.86;100625.28;4953258;28;97201;-83
2023/05/28 10:21:22;;;;;;;5.85;2.00;;;;;;;25.25;22.71;100629.84;4956391;28;97222;-84
2023/05/28 10:23:48;;;;;;;3.13;1.30;;;;;;;25.26;23.33;100628.84;4939127;28;101369;-83
2023/05/28 10:26:14;;;;;;;3.58;1.40;;;;;;;25.38;23.72;100611.59;4936448;28;101147;-84
2023/05/28 10:28:40;;;;;;;5.53;1.90;;;;;;;25.30;22.62;100592.66;4933286;28;97153;-84
2023/05/28 10:31:07;;;;;;;5.20;1.88;;;;;;;25.51;23.29;100605.94;4927631;28;97509;-82
2023/05/28 10:33:43;;;;;;;5.20;1.67;;;;;;;25.42;23.93;100596.03;4940494;28;101374;-87
2023/05/28 10:36:14;;;;;;;2.97;2.03;;;;;;;25.55;23.99;100593.94;4969635;28;98538;-85
2023/05/28 10:38:44;;;;;;;6.13;1.70;;;;;;;25.20;24.24;100581.91;4955221;28;97155;-85
2023/05/28 10:41:10;;;;;;;5.13;1.65;;;;;;;25.34;24.02;100609.31;4938807;28;96921;-85
2023/05/28 10:43:39;;;;;;;5.72;2.10;;;;;;;25.29;24.63;100577.53;4939530;28;101672;-87
2023/05/28 10:46:17;;;;;;;4.13;1.73;;;;;;;25.38;23.82;100600.00;4955032;28;100384;-86
2023/05/28 10:49:08;;;;;;;4.03;1.55;;;;;;;25.08;23.34;100602.66;4946673;28;97091;-88
2023/05/28 10:52:00;;;;;;;6.70;2.20;;;;;;;25.01;23.79;100597.97;4949379;28;97282;-82
2023/05/28 10:54:37;;;;;;;5.25;1.95;;;;;;;24.67;23.68;100586.72;4957744;28;101259;-86
2023/05/28 10:57:13;;;;;;;3.38;2.13;;;;;;;24.71;23.80;100604.25;4990985;28;98450;-82
2023/05/28 10:59:52;;;;;;;3.28;1.80;;;;;;;24.83;24.90;100595.09;4973399;28;96913;-87
2023/05/28 11:02:21;;;;;;;4.93;1.88;;;;;;;24.72;24.52;100597.88;4935155;28;96951;-87
2023/05/28 11:04:52;;;;;;;6.85;1.83;;;;;;;24.39;23.48;100589.13;4940430;28;101457;-85
2023/05/28 11:07:18;;;;;;;;;;;;;;;23.92;23.52;100592.28;4965133;28;98602;-90
2023/05/28 11:09:48;;;;;;;5.78;1.98;;;;;;;24.06;24.17;100575.00;4965056;28;97342;-89
2023/05/28 11:12:14;;;;;;;4.70;1.80;;;;;;;24.13;23.80;100594.09;4976246;28;96780;-88
2023/05/28 11:14:39;;;;;;;7.57;1.65;;;;;;;23.59;23.41;100604.03;4937128;28;101090;-92
2023/05/28 11:17:07;;;;;;;4.57;1.67;;;;;;;23.54;23.44;100598.19;4985108;28;97633;-88
2023/05/28 11:19:39;;;;;;;3.38;1.45;;;;;;;23.69;22.20;100601.41;4949963;28;97462;-88
2023/05/28 11:22:05;;;;;;;6.63;2.20;;;;;;;23.77;22.53;100592.75;4946947;28;97046;-86
2023/05/28 11:24:32;;;;;;;6.53;1.60;;;;;;;23.85;23.44;100601.84;4935036;28;102153;-88
2023/05/28 11:26:58;;;;;;;3.85;1.95;;;;;;;23.50;24.23;100594.94;4950388;28;101267;-89
2023/05/28 11:29:23;;;;;;;5.30;1.80;;;;;;;23.47;24.17;100595.19;4958442;28;97000;-91